sensor_id;sensor_type;location;lat;lon;timestamp;temperature;humidity
4922;DHT22;16625;53.624;10.106;2023-04-03T00:01:04;-1.50;99.90
4922;DHT22;16625;53.624;10.106;2023-04-03T00:03:33;-1.80;99.90
4922;DHT22;16625;53.624;10.106;2023-04-03T00:06:01;-1.70;99.90
4922;DHT22;16625;53.624;10.106;2023-04-03T00:08:28;-1.60;1.00
4922;DHT22;16625;53.624;10.106;2023-04-03T00:10:56;-1.60;1.00
4922;DHT22;16625;53.624;10.106;2023-04-03T00:13:25;-1.70;1.00
4922;DHT22;16625;53.624;10.106;2023-04-03T00:15:52;-1.60;43.70
4922;DHT22;16625;53.624;10.106;2023-04-03T00:18:20;-1.60;99.90
4922;DHT22;16625;53.624;10.106;2023-04-03T00:20:47;-1.40;99.90
4922;DHT22;16625;53.624;10.106;2023-04-03T00:23:14;-1.70;99.90
4922;DHT22;16625;53.624;10.106;2023-04-03T00:25:42;-1.70;99.90
4922;DHT22;16625;53.624;10.106;2023-04-03T00:28:12;-1.60;99.90
4922;DHT22;16625;53.624;10.106;2023-04-03T00:30:40;-1.60;99.90
4922;DHT22;16625;53.624;10.106;2023-04-03T00:33:21;-1.70;1.00
4922;DHT22;16625;53.624;10.106;2023-04-03T00:35:51;-1.60;1.00
4922;DHT22;16625;53.624;10.106;2023-04-03T00:38:18;-1.40;99.90
4922;DHT22;16625;53.624;10.106;2023-04-03T00:40:47;-1.30;80.20
4922;DHT22;16625;53.624;10.106;2023-04-03T00:43:18;-1.70;53.40
4922;DHT22;16625;53.624;10.106;2023-04-03T00:45:48;-1.60;21.70
4922;DHT22;16625;53.624;10.106;2023-04-03T00:48:20;-1.60;24.20
4922;DHT22;16625;53.624;10.106;2023-04-03T00:50:47;-1.20;1.00
4922;DHT22;16625;53.624;10.106;2023-04-03T00:53:17;-1.70;4.50
4922;DHT22;16625;53.624;10.106;2023-04-03T00:55:47;-1.80;99.90
4922;DHT22;16625;53.624;10.106;2023-04-03T00:58:16;-1.60;99.90
4922;DHT22;16625;53.624;10.106;2023-04-03T01:00:58;-1.30;99.90
4922;DHT22;16625;53.624;10.106;2023-04-03T01:03:26;-1.50;99.90
4922;DHT22;16625;53.624;10.106;2023-04-03T01:05:53;-1.80;1.00
4922;DHT22;16625;53.624;10.106;2023-04-03T01:08:20;-1.70;1.00
4922;DHT22;16625;53.624;10.106;2023-04-03T01:10:48;-1.80;34.40
4922;DHT22;16625;53.624;10.106;2023-04-03T01:13:21;-1.80;99.90
4922;DHT22;16625;53.624;10.106;2023-04-03T01:15:48;-1.40;99.90
4922;DHT22;16625;53.624;10.106;2023-04-03T01:18:17;-1.70;99.90
4922;DHT22;16625;53.624;10.106;2023-04-03T01:21:14;-1.80;99.90
4922;DHT22;16625;53.624;10.106;2023-04-03T01:26:37;-1.80;99.90
4922;DHT22;16625;53.624;10.106;2023-04-03T01:29:04;-1.80;99.90
4922;DHT22;16625;53.624;10.106;2023-04-03T01:31:49;-1.90;99.90
4922;DHT22;16625;53.624;10.106;2023-04-03T01:34:16;-1.90;99.90
4922;DHT22;16625;53.624;10.106;2023-04-03T01:36:43;-2.00;99.90
4922;DHT22;16625;53.624;10.106;2023-04-03T01:39:18;-2.00;99.90
4922;DHT22;16625;53.624;10.106;2023-04-03T01:41:45;-2.10;99.90
4922;DHT22;16625;53.624;10.106;2023-04-03T01:44:12;-2.20;99.90
4922;DHT22;16625;53.624;10.106;2023-04-03T01:46:39;-2.20;99.90
4922;DHT22;16625;53.624;10.106;2023-04-03T01:49:08;-2.20;99.90
4922;DHT22;16625;53.624;10.106;2023-04-03T01:51:35;-2.20;1.00
4922;DHT22;16625;53.624;10.106;2023-04-03T01:54:02;-2.20;1.00
4922;DHT22;16625;53.624;10.106;2023-04-03T01:56:29;-2.30;1.00
4922;DHT22;16625;53.624;10.106;2023-04-03T01:58:56;-2.30;1.00
4922;DHT22;16625;53.624;10.106;2023-04-03T02:01:23;-2.30;1.00
4922;DHT22;16625;53.624;10.106;2023-04-03T02:03:51;-2.30;1.00
4922;DHT22;16625;53.624;10.106;2023-04-03T02:06:19;-2.10;19.80
4922;DHT22;16625;53.624;10.106;2023-04-03T02:08:56;-1.90;66.10
4922;DHT22;16625;53.624;10.106;2023-04-03T02:11:23;-2.00;99.90
4922;DHT22;16625;53.624;10.106;2023-04-03T02:13:50;-2.20;99.90
4922;DHT22;16625;53.624;10.106;2023-04-03T02:16:17;-2.30;99.90
4922;DHT22;16625;53.624;10.106;2023-04-03T02:18:44;-2.20;99.90
4922;DHT22;16625;53.624;10.106;2023-04-03T02:21:11;-2.40;99.90
4922;DHT22;16625;53.624;10.106;2023-04-03T02:23:41;-2.40;99.90
4922;DHT22;16625;53.624;10.106;2023-04-03T02:26:10;-2.40;99.90
4922;DHT22;16625;53.624;10.106;2023-04-03T02:28:37;-2.40;99.90
4922;DHT22;16625;53.624;10.106;2023-04-03T02:31:05;-2.40;99.90
4922;DHT22;16625;53.624;10.106;2023-04-03T02:33:33;-2.50;99.90
4922;DHT22;16625;53.624;10.106;2023-04-03T02:36:01;-2.50;99.90
4922;DHT22;16625;53.624;10.106;2023-04-03T02:38:29;-2.50;99.90
4922;DHT22;16625;53.624;10.106;2023-04-03T02:41:01;-2.50;99.90
4922;DHT22;16625;53.624;10.106;2023-04-03T02:43:28;-2.50;99.90
4922;DHT22;16625;53.624;10.106;2023-04-03T02:45:55;-2.50;99.90
4922;DHT22;16625;53.624;10.106;2023-04-03T02:48:24;-2.50;99.90
4922;DHT22;16625;53.624;10.106;2023-04-03T02:50:51;-2.50;99.90
4922;DHT22;16625;53.624;10.106;2023-04-03T02:53:18;-2.30;99.90
4922;DHT22;16625;53.624;10.106;2023-04-03T02:55:46;-2.20;99.90
4922;DHT22;16625;53.624;10.106;2023-04-03T02:58:14;-2.50;99.90
4922;DHT22;16625;53.624;10.106;2023-04-03T03:00:41;-2.60;99.90
4922;DHT22;16625;53.624;10.106;2023-04-03T03:03:09;-2.60;99.90
4922;DHT22;16625;53.624;10.106;2023-04-03T03:05:36;-2.50;99.90
4922;DHT22;16625;53.624;10.106;2023-04-03T03:08:02;-2.70;99.90
4922;DHT22;16625;53.624;10.106;2023-04-03T03:10:31;-2.40;99.90
4922;DHT22;16625;53.624;10.106;2023-04-03T03:12:58;-2.30;99.90
4922;DHT22;16625;53.624;10.106;2023-04-03T03:15:27;-2.50;99.90
4922;DHT22;16625;53.624;10.106;2023-04-03T03:17:54;-2.60;99.90
4922;DHT22;16625;53.624;10.106;2023-04-03T03:20:21;-2.60;99.90
4922;DHT22;16625;53.624;10.106;2023-04-03T03:22:48;-2.50;99.90
4922;DHT22;16625;53.624;10.106;2023-04-03T03:25:15;-2.70;99.90
4922;DHT22;16625;53.624;10.106;2023-04-03T03:27:43;-2.70;99.90
4922;DHT22;16625;53.624;10.106;2023-04-03T03:30:10;-2.00;99.90
4922;DHT22;16625;53.624;10.106;2023-04-03T03:32:39;-2.80;99.90
4922;DHT22;16625;53.624;10.106;2023-04-03T03:35:06;-2.70;99.90
4922;DHT22;16625;53.624;10.106;2023-04-03T03:37:33;-2.80;99.90
4922;DHT22;16625;53.624;10.106;2023-04-03T03:40:02;-2.80;99.90
4922;DHT22;16625;53.624;10.106;2023-04-03T03:42:29;-2.50;99.90
4922;DHT22;16625;53.624;10.106;2023-04-03T03:44:56;-2.70;99.90
4922;DHT22;16625;53.624;10.106;2023-04-03T03:47:43;-2.50;99.90
4922;DHT22;16625;53.624;10.106;2023-04-03T03:50:11;-2.80;99.90
4922;DHT22;16625;53.624;10.106;2023-04-03T03:52:37;-2.80;99.90
4922;DHT22;16625;53.624;10.106;2023-04-03T03:55:05;-2.90;99.90
4922;DHT22;16625;53.624;10.106;2023-04-03T03:57:32;-2.80;99.90
4922;DHT22;16625;53.624;10.106;2023-04-03T03:59:59;-2.50;99.90
4922;DHT22;16625;53.624;10.106;2023-04-03T04:02:27;-2.80;99.90
4922;DHT22;16625;53.624;10.106;2023-04-03T04:04:55;-2.80;99.90
4922;DHT22;16625;53.624;10.106;2023-04-03T04:07:22;-2.80;99.90
4922;DHT22;16625;53.624;10.106;2023-04-03T04:09:49;-2.60;99.90
4922;DHT22;16625;53.624;10.106;2023-04-03T04:12:16;-2.80;99.90
4922;DHT22;16625;53.624;10.106;2023-04-03T04:14:43;-2.80;99.90
4922;DHT22;16625;53.624;10.106;2023-04-03T04:17:12;-2.70;99.90
4922;DHT22;16625;53.624;10.106;2023-04-03T04:19:39;-2.90;99.90
4922;DHT22;16625;53.624;10.106;2023-04-03T04:22:08;-2.90;99.90
4922;DHT22;16625;53.624;10.106;2023-04-03T04:24:35;-2.90;99.90
4922;DHT22;16625;53.624;10.106;2023-04-03T04:27:02;-3.00;99.90
4922;DHT22;16625;53.624;10.106;2023-04-03T04:29:29;-3.00;99.90
4922;DHT22;16625;53.624;10.106;2023-04-03T04:32:01;-2.90;99.90
4922;DHT22;16625;53.624;10.106;2023-04-03T04:34:28;-2.70;99.90
4922;DHT22;16625;53.624;10.106;2023-04-03T04:36:55;-3.00;99.90
4922;DHT22;16625;53.624;10.106;2023-04-03T04:39:23;-3.00;99.90
4922;DHT22;16625;53.624;10.106;2023-04-03T04:41:50;-3.00;99.90
4922;DHT22;16625;53.624;10.106;2023-04-03T04:44:18;-2.90;99.90
4922;DHT22;16625;53.624;10.106;2023-04-03T04:46:45;-2.90;99.90
4922;DHT22;16625;53.624;10.106;2023-04-03T04:49:12;-3.00;99.90
4922;DHT22;16625;53.624;10.106;2023-04-03T04:51:39;-2.10;99.90
4922;DHT22;16625;53.624;10.106;2023-04-03T04:54:06;-2.90;99.90
4922;DHT22;16625;53.624;10.106;2023-04-03T04:56:57;-2.90;99.90
4922;DHT22;16625;53.624;10.106;2023-04-03T04:59:24;-2.90;99.90
4922;DHT22;16625;53.624;10.106;2023-04-03T05:01:51;-2.60;99.90
4922;DHT22;16625;53.624;10.106;2023-04-03T05:04:18;-2.90;99.90
4922;DHT22;16625;53.624;10.106;2023-04-03T05:06:45;-3.00;99.90
4922;DHT22;16625;53.624;10.106;2023-04-03T05:09:12;-3.00;99.90
4922;DHT22;16625;53.624;10.106;2023-04-03T05:11:39;-3.00;99.90
4922;DHT22;16625;53.624;10.106;2023-04-03T05:14:07;-2.80;99.90
4922;DHT22;16625;53.624;10.106;2023-04-03T05:16:34;-1.70;99.90
4922;DHT22;16625;53.624;10.106;2023-04-03T05:19:02;-2.50;99.90
4922;DHT22;16625;53.624;10.106;2023-04-03T05:21:30;-2.70;99.90
4922;DHT22;16625;53.624;10.106;2023-04-03T05:23:58;-2.70;99.90
4922;DHT22;16625;53.624;10.106;2023-04-03T05:26:28;-2.40;99.90
4922;DHT22;16625;53.624;10.106;2023-04-03T05:28:55;-2.40;99.90
4922;DHT22;16625;53.624;10.106;2023-04-03T05:31:23;-2.30;99.90
4922;DHT22;16625;53.624;10.106;2023-04-03T05:33:50;-2.40;99.90
4922;DHT22;16625;53.624;10.106;2023-04-03T05:36:17;-2.40;99.90
4922;DHT22;16625;53.624;10.106;2023-04-03T05:38:45;-2.20;99.90
4922;DHT22;16625;53.624;10.106;2023-04-03T05:41:12;-1.90;99.90
4922;DHT22;16625;53.624;10.106;2023-04-03T05:43:39;-1.90;99.90
4922;DHT22;16625;53.624;10.106;2023-04-03T05:46:09;-2.10;99.90
4922;DHT22;16625;53.624;10.106;2023-04-03T05:48:38;-2.10;99.90
4922;DHT22;16625;53.624;10.106;2023-04-03T05:51:06;-2.00;99.90
4922;DHT22;16625;53.624;10.106;2023-04-03T05:53:35;-1.90;99.90
4922;DHT22;16625;53.624;10.106;2023-04-03T05:56:03;-1.90;99.90
4922;DHT22;16625;53.624;10.106;2023-04-03T05:58:30;-1.90;99.90
4922;DHT22;16625;53.624;10.106;2023-04-03T06:00:57;-1.80;99.90
4922;DHT22;16625;53.624;10.106;2023-04-03T06:03:27;-1.70;99.90
4922;DHT22;16625;53.624;10.106;2023-04-03T06:05:55;-1.50;99.90
4922;DHT22;16625;53.624;10.106;2023-04-03T06:08:28;-1.40;99.90
4922;DHT22;16625;53.624;10.106;2023-04-03T06:10:56;-1.40;99.90
4922;DHT22;16625;53.624;10.106;2023-04-03T06:13:23;-1.00;99.90
4922;DHT22;16625;53.624;10.106;2023-04-03T06:15:50;-0.30;99.90
4922;DHT22;16625;53.624;10.106;2023-04-03T06:18:17;-1.00;99.90
4922;DHT22;16625;53.624;10.106;2023-04-03T06:20:45;-1.00;99.90
4922;DHT22;16625;53.624;10.106;2023-04-03T06:23:17;-0.50;99.90
4922;DHT22;16625;53.624;10.106;2023-04-03T06:25:46;-0.70;99.90
4922;DHT22;16625;53.624;10.106;2023-04-03T06:28:13;-0.50;99.90
4922;DHT22;16625;53.624;10.106;2023-04-03T06:30:43;-0.50;99.90
4922;DHT22;16625;53.624;10.106;2023-04-03T06:33:27;-0.20;99.90
4922;DHT22;16625;53.624;10.106;2023-04-03T06:35:59;-0.30;99.90
4922;DHT22;16625;53.624;10.106;2023-04-03T06:38:28;-0.10;99.90
4922;DHT22;16625;53.624;10.106;2023-04-03T06:40:55;0.30;99.90
4922;DHT22;16625;53.624;10.106;2023-04-03T06:43:22;0.20;99.90
4922;DHT22;16625;53.624;10.106;2023-04-03T06:45:50;0.90;99.90
4922;DHT22;16625;53.624;10.106;2023-04-03T06:48:17;0.50;99.90
4922;DHT22;16625;53.624;10.106;2023-04-03T06:50:44;0.70;99.90
4922;DHT22;16625;53.624;10.106;2023-04-03T06:53:11;0.80;99.90
4922;DHT22;16625;53.624;10.106;2023-04-03T06:55:40;1.00;99.90
4922;DHT22;16625;53.624;10.106;2023-04-03T06:58:10;1.10;99.90
4922;DHT22;16625;53.624;10.106;2023-04-03T07:00:37;1.30;99.90
4922;DHT22;16625;53.624;10.106;2023-04-03T07:03:04;1.40;99.90
4922;DHT22;16625;53.624;10.106;2023-04-03T07:05:32;1.90;99.90
4922;DHT22;16625;53.624;10.106;2023-04-03T07:07:59;2.20;1.00
4922;DHT22;16625;53.624;10.106;2023-04-03T07:10:26;2.40;99.90
4922;DHT22;16625;53.624;10.106;2023-04-03T07:12:54;2.20;1.00
4922;DHT22;16625;53.624;10.106;2023-04-03T07:15:21;2.30;99.90
4922;DHT22;16625;53.624;10.106;2023-04-03T07:17:48;2.80;99.90
4922;DHT22;16625;53.624;10.106;2023-04-03T07:20:15;2.60;1.00
4922;DHT22;16625;53.624;10.106;2023-04-03T07:22:42;3.10;1.00
4922;DHT22;16625;53.624;10.106;2023-04-03T07:25:09;3.10;99.90
4922;DHT22;16625;53.624;10.106;2023-04-03T07:27:36;3.40;99.90
4922;DHT22;16625;53.624;10.106;2023-04-03T07:30:06;3.50;1.00
4922;DHT22;16625;53.624;10.106;2023-04-03T07:32:33;3.70;99.90
4922;DHT22;16625;53.624;10.106;2023-04-03T07:35:00;3.80;99.90
4922;DHT22;16625;53.624;10.106;2023-04-03T07:37:28;3.90;1.00
4922;DHT22;16625;53.624;10.106;2023-04-03T07:39:55;4.30;1.00
4922;DHT22;16625;53.624;10.106;2023-04-03T07:42:24;4.10;99.90
4922;DHT22;16625;53.624;10.106;2023-04-03T07:44:55;4.20;99.90
4922;DHT22;16625;53.624;10.106;2023-04-03T07:47:23;4.30;1.00
4922;DHT22;16625;53.624;10.106;2023-04-03T07:49:50;4.60;1.00
4922;DHT22;16625;53.624;10.106;2023-04-03T07:52:17;4.50;1.00
4922;DHT22;16625;53.624;10.106;2023-04-03T07:54:44;4.60;99.90
4922;DHT22;16625;53.624;10.106;2023-04-03T07:57:11;4.60;99.90
4922;DHT22;16625;53.624;10.106;2023-04-03T07:59:38;4.70;99.90
4922;DHT22;16625;53.624;10.106;2023-04-03T08:02:08;4.80;99.90
4922;DHT22;16625;53.624;10.106;2023-04-03T08:04:37;4.90;99.90
4922;DHT22;16625;53.624;10.106;2023-04-03T08:07:04;5.30;99.90
4922;DHT22;16625;53.624;10.106;2023-04-03T08:09:31;5.90;99.90
4922;DHT22;16625;53.624;10.106;2023-04-03T08:11:58;5.20;99.90
4922;DHT22;16625;53.624;10.106;2023-04-03T08:14:26;5.30;99.90
4922;DHT22;16625;53.624;10.106;2023-04-03T08:16:53;5.80;85.60
4922;DHT22;16625;53.624;10.106;2023-04-03T08:19:20;5.50;57.00
4922;DHT22;16625;53.624;10.106;2023-04-03T08:21:48;5.60;47.40
4922;DHT22;16625;53.624;10.106;2023-04-03T08:24:15;5.70;1.00
4922;DHT22;16625;53.624;10.106;2023-04-03T08:26:42;5.70;1.00
4922;DHT22;16625;53.624;10.106;2023-04-03T08:29:10;6.00;1.00
4922;DHT22;16625;53.624;10.106;2023-04-03T08:31:37;5.60;1.00
4922;DHT22;16625;53.624;10.106;2023-04-03T08:34:04;6.10;1.00
4922;DHT22;16625;53.624;10.106;2023-04-03T08:36:32;6.00;1.00
4922;DHT22;16625;53.624;10.106;2023-04-03T08:39:00;5.80;1.00
4922;DHT22;16625;53.624;10.106;2023-04-03T08:41:31;5.90;1.00
4922;DHT22;16625;53.624;10.106;2023-04-03T08:44:13;6.00;1.00
4922;DHT22;16625;53.624;10.106;2023-04-03T08:46:52;6.10;1.00
4922;DHT22;16625;53.624;10.106;2023-04-03T08:49:26;6.20;1.00
4922;DHT22;16625;53.624;10.106;2023-04-03T08:51:55;6.20;1.00
4922;DHT22;16625;53.624;10.106;2023-04-03T08:54:37;6.20;1.00
4922;DHT22;16625;53.624;10.106;2023-04-03T08:57:05;6.30;1.00
4922;DHT22;16625;53.624;10.106;2023-04-03T08:59:34;6.40;1.00
4922;DHT22;16625;53.624;10.106;2023-04-03T09:02:12;6.50;1.00
4922;DHT22;16625;53.624;10.106;2023-04-03T09:04:41;6.60;1.00
4922;DHT22;16625;53.624;10.106;2023-04-03T09:07:14;6.60;99.90
4922;DHT22;16625;53.624;10.106;2023-04-03T09:09:44;6.60;99.90
4922;DHT22;16625;53.624;10.106;2023-04-03T09:12:18;7.30;99.90
4922;DHT22;16625;53.624;10.106;2023-04-03T09:14:53;6.60;99.90
4922;DHT22;16625;53.624;10.106;2023-04-03T09:17:36;6.70;99.90
4922;DHT22;16625;53.624;10.106;2023-04-03T09:20:14;6.60;99.90
4922;DHT22;16625;53.624;10.106;2023-04-03T09:22:44;6.70;99.90
4922;DHT22;16625;53.624;10.106;2023-04-03T09:25:15;7.00;99.90
4922;DHT22;16625;53.624;10.106;2023-04-03T09:27:44;7.00;99.90
4922;DHT22;16625;53.624;10.106;2023-04-03T09:30:13;7.20;99.90
4922;DHT22;16625;53.624;10.106;2023-04-03T09:32:41;7.30;99.90
4922;DHT22;16625;53.624;10.106;2023-04-03T09:35:19;7.30;99.90
4922;DHT22;16625;53.624;10.106;2023-04-03T09:37:48;7.30;99.90
4922;DHT22;16625;53.624;10.106;2023-04-03T09:40:36;7.40;99.90
4922;DHT22;16625;53.624;10.106;2023-04-03T09:43:20;7.50;99.90
4922;DHT22;16625;53.624;10.106;2023-04-03T09:45:48;7.80;99.90
4922;DHT22;16625;53.624;10.106;2023-04-03T09:48:20;7.40;99.90
4922;DHT22;16625;53.624;10.106;2023-04-03T09:51:00;7.80;99.90
4922;DHT22;16625;53.624;10.106;2023-04-03T09:53:32;7.60;99.90
4922;DHT22;16625;53.624;10.106;2023-04-03T09:56:04;7.30;99.90
4922;DHT22;16625;53.624;10.106;2023-04-03T09:58:38;7.40;99.90
4922;DHT22;16625;53.624;10.106;2023-04-03T10:01:21;7.50;99.90
4922;DHT22;16625;53.624;10.106;2023-04-03T10:04:03;7.60;99.90
4922;DHT22;16625;53.624;10.106;2023-04-03T10:06:33;7.60;99.90
4922;DHT22;16625;53.624;10.106;2023-04-03T10:09:05;7.80;99.90
4922;DHT22;16625;53.624;10.106;2023-04-03T10:11:34;7.90;99.90
4922;DHT22;16625;53.624;10.106;2023-04-03T10:14:03;7.90;99.90
4922;DHT22;16625;53.624;10.106;2023-04-03T10:16:36;8.00;99.90
4922;DHT22;16625;53.624;10.106;2023-04-03T10:19:28;8.00;99.90
4922;DHT22;16625;53.624;10.106;2023-04-03T10:21:59;7.90;99.90
4922;DHT22;16625;53.624;10.106;2023-04-03T10:24:33;7.80;99.90
4922;DHT22;16625;53.624;10.106;2023-04-03T10:27:07;7.50;99.90
4922;DHT22;16625;53.624;10.106;2023-04-03T10:29:45;7.10;99.90
4922;DHT22;16625;53.624;10.106;2023-04-03T10:32:31;6.90;99.90
4922;DHT22;16625;53.624;10.106;2023-04-03T10:35:08;7.40;99.90
4922;DHT22;16625;53.624;10.106;2023-04-03T10:37:49;7.50;99.90
4922;DHT22;16625;53.624;10.106;2023-04-03T10:40:25;8.00;99.90
4922;DHT22;16625;53.624;10.106;2023-04-03T10:43:04;7.90;99.90
4922;DHT22;16625;53.624;10.106;2023-04-03T10:45:46;8.90;99.90
4922;DHT22;16625;53.624;10.106;2023-04-03T10:48:18;8.60;99.90
4922;DHT22;16625;53.624;10.106;2023-04-03T10:50:56;9.10;99.90
4922;DHT22;16625;53.624;10.106;2023-04-03T10:53:28;9.20;99.90
4922;DHT22;16625;53.624;10.106;2023-04-03T10:56:03;9.20;99.90
4922;DHT22;16625;53.624;10.106;2023-04-03T10:58:40;9.30;99.90
4922;DHT22;16625;53.624;10.106;2023-04-03T11:01:13;9.50;99.90
4922;DHT22;16625;53.624;10.106;2023-04-03T11:03:43;8.90;99.90
4922;DHT22;16625;53.624;10.106;2023-04-03T11:06:14;8.50;99.90
4922;DHT22;16625;53.624;10.106;2023-04-03T11:08:46;8.20;99.90
4922;DHT22;16625;53.624;10.106;2023-04-03T11:11:19;8.10;99.90
4922;DHT22;16625;53.624;10.106;2023-04-03T11:13:52;8.30;99.90
4922;DHT22;16625;53.624;10.106;2023-04-03T11:16:27;8.00;99.90
4922;DHT22;16625;53.624;10.106;2023-04-03T11:19:01;7.50;99.90
4922;DHT22;16625;53.624;10.106;2023-04-03T11:21:33;7.30;99.90
4922;DHT22;16625;53.624;10.106;2023-04-03T11:24:03;7.60;99.90
4922;DHT22;16625;53.624;10.106;2023-04-03T11:26:38;7.40;99.90
4922;DHT22;16625;53.624;10.106;2023-04-03T11:29:14;7.60;99.90
4922;DHT22;16625;53.624;10.106;2023-04-03T11:31:58;7.50;99.90
4922;DHT22;16625;53.624;10.106;2023-04-03T11:34:34;7.90;99.90
4922;DHT22;16625;53.624;10.106;2023-04-03T11:37:13;7.50;99.90
4922;DHT22;16625;53.624;10.106;2023-04-03T11:39:48;7.40;99.90
4922;DHT22;16625;53.624;10.106;2023-04-03T11:42:25;7.10;99.90
4922;DHT22;16625;53.624;10.106;2023-04-03T11:45:16;7.50;99.90
4922;DHT22;16625;53.624;10.106;2023-04-03T11:47:45;7.70;99.90
4922;DHT22;16625;53.624;10.106;2023-04-03T11:50:32;7.90;99.90
4922;DHT22;16625;53.624;10.106;2023-04-03T11:53:31;8.30;99.90
4922;DHT22;16625;53.624;10.106;2023-04-03T11:56:01;8.60;99.90
4922;DHT22;16625;53.624;10.106;2023-04-03T11:58:30;9.10;99.90
4922;DHT22;16625;53.624;10.106;2023-04-03T12:01:08;8.80;99.90
4922;DHT22;16625;53.624;10.106;2023-04-03T12:03:58;9.00;99.90
4922;DHT22;16625;53.624;10.106;2023-04-03T12:07:08;9.00;99.90
4922;DHT22;16625;53.624;10.106;2023-04-03T12:12:57;9.50;99.90
4922;DHT22;16625;53.624;10.106;2023-04-03T12:15:50;9.90;99.90
4922;DHT22;16625;53.624;10.106;2023-04-03T12:18:41;10.20;99.90
4922;DHT22;16625;53.624;10.106;2023-04-03T12:21:09;10.40;99.90
4922;DHT22;16625;53.624;10.106;2023-04-03T12:23:59;10.30;99.90
4922;DHT22;16625;53.624;10.106;2023-04-03T12:26:35;10.80;99.90
4922;DHT22;16625;53.624;10.106;2023-04-03T12:29:20;10.30;99.90
4922;DHT22;16625;53.624;10.106;2023-04-03T12:31:56;10.20;99.90
4922;DHT22;16625;53.624;10.106;2023-04-03T12:34:59;9.60;99.90
4922;DHT22;16625;53.624;10.106;2023-04-03T12:41:20;8.50;99.90
4922;DHT22;16625;53.624;10.106;2023-04-03T12:44:18;8.40;99.90
4922;DHT22;16625;53.624;10.106;2023-04-03T12:46:50;8.60;99.90
4922;DHT22;16625;53.624;10.106;2023-04-03T12:49:33;8.80;99.90
4922;DHT22;16625;53.624;10.106;2023-04-03T12:52:06;9.20;99.90
4922;DHT22;16625;53.624;10.106;2023-04-03T12:54:46;9.30;99.90
4922;DHT22;16625;53.624;10.106;2023-04-03T12:57:26;9.50;99.90
4922;DHT22;16625;53.624;10.106;2023-04-03T13:03:45;9.30;99.90
4922;DHT22;16625;53.624;10.106;2023-04-03T13:17:02;9.00;99.90
4922;DHT22;16625;53.624;10.106;2023-04-03T13:19:46;8.70;99.90
4922;DHT22;16625;53.624;10.106;2023-04-03T13:22:40;8.40;99.90
4922;DHT22;16625;53.624;10.106;2023-04-03T13:25:37;8.30;99.90
4922;DHT22;16625;53.624;10.106;2023-04-03T13:38:00;9.20;99.90
4922;DHT22;16625;53.624;10.106;2023-04-03T13:40:28;9.00;99.90
4922;DHT22;16625;53.624;10.106;2023-04-03T13:43:03;8.90;99.90
4922;DHT22;16625;53.624;10.106;2023-04-03T13:45:32;8.80;99.90
4922;DHT22;16625;53.624;10.106;2023-04-03T13:48:17;8.80;99.90
4922;DHT22;16625;53.624;10.106;2023-04-03T13:50:57;8.80;99.90
4922;DHT22;16625;53.624;10.106;2023-04-03T13:53:27;8.80;99.90
4922;DHT22;16625;53.624;10.106;2023-04-03T13:56:06;8.90;99.90
4922;DHT22;16625;53.624;10.106;2023-04-03T13:58:36;8.90;99.90
4922;DHT22;16625;53.624;10.106;2023-04-03T14:01:18;8.90;99.90
4922;DHT22;16625;53.624;10.106;2023-04-03T14:03:54;8.90;99.90
4922;DHT22;16625;53.624;10.106;2023-04-03T14:06:22;8.90;99.90
4922;DHT22;16625;53.624;10.106;2023-04-03T14:08:51;9.00;99.90
4922;DHT22;16625;53.624;10.106;2023-04-03T14:11:21;9.00;99.90
4922;DHT22;16625;53.624;10.106;2023-04-03T14:13:49;9.10;99.90
4922;DHT22;16625;53.624;10.106;2023-04-03T14:16:20;8.90;99.90
4922;DHT22;16625;53.624;10.106;2023-04-03T14:18:51;8.60;99.90
4922;DHT22;16625;53.624;10.106;2023-04-03T14:21:19;8.60;99.90
4922;DHT22;16625;53.624;10.106;2023-04-03T14:23:47;8.60;99.90
4922;DHT22;16625;53.624;10.106;2023-04-03T14:26:17;8.60;99.90
4922;DHT22;16625;53.624;10.106;2023-04-03T14:28:47;8.70;99.90
4922;DHT22;16625;53.624;10.106;2023-04-03T14:31:16;8.70;99.90
4922;DHT22;16625;53.624;10.106;2023-04-03T14:33:48;8.70;99.90
4922;DHT22;16625;53.624;10.106;2023-04-03T14:36:19;8.60;99.90
4922;DHT22;16625;53.624;10.106;2023-04-03T14:38:48;8.60;99.90
4922;DHT22;16625;53.624;10.106;2023-04-03T14:41:18;8.60;99.90
4922;DHT22;16625;53.624;10.106;2023-04-03T14:43:46;8.60;99.90
4922;DHT22;16625;53.624;10.106;2023-04-03T14:46:15;8.40;99.90
4922;DHT22;16625;53.624;10.106;2023-04-03T14:48:43;8.40;99.90
4922;DHT22;16625;53.624;10.106;2023-04-03T14:51:12;8.20;99.90
4922;DHT22;16625;53.624;10.106;2023-04-03T14:53:39;8.20;99.90
4922;DHT22;16625;53.624;10.106;2023-04-03T14:56:12;8.40;99.90
4922;DHT22;16625;53.624;10.106;2023-04-03T14:58:41;8.30;99.90
4922;DHT22;16625;53.624;10.106;2023-04-03T15:01:11;8.30;99.90
4922;DHT22;16625;53.624;10.106;2023-04-03T15:03:39;8.60;99.90
4922;DHT22;16625;53.624;10.106;2023-04-03T15:06:08;8.90;99.90
4922;DHT22;16625;53.624;10.106;2023-04-03T15:08:35;9.10;99.90
4922;DHT22;16625;53.624;10.106;2023-04-03T15:11:02;9.20;99.90
4922;DHT22;16625;53.624;10.106;2023-04-03T15:13:31;9.00;99.90
4922;DHT22;16625;53.624;10.106;2023-04-03T15:16:00;8.50;99.90
4922;DHT22;16625;53.624;10.106;2023-04-03T15:18:28;8.20;99.90
4922;DHT22;16625;53.624;10.106;2023-04-03T15:20:56;7.70;99.90
4922;DHT22;16625;53.624;10.106;2023-04-03T15:23:23;7.40;99.90
4922;DHT22;16625;53.624;10.106;2023-04-03T15:25:52;7.20;99.90
4922;DHT22;16625;53.624;10.106;2023-04-03T15:28:23;7.20;99.90
4922;DHT22;16625;53.624;10.106;2023-04-03T15:30:52;7.50;99.90
4922;DHT22;16625;53.624;10.106;2023-04-03T15:33:24;7.60;99.90
4922;DHT22;16625;53.624;10.106;2023-04-03T15:35:51;7.90;99.90
4922;DHT22;16625;53.624;10.106;2023-04-03T15:38:19;8.00;99.90
4922;DHT22;16625;53.624;10.106;2023-04-03T15:40:46;8.00;99.90
4922;DHT22;16625;53.624;10.106;2023-04-03T15:43:14;7.90;99.90
4922;DHT22;16625;53.624;10.106;2023-04-03T15:45:42;7.60;99.90
4922;DHT22;16625;53.624;10.106;2023-04-03T15:48:11;7.30;99.90
4922;DHT22;16625;53.624;10.106;2023-04-03T15:50:40;7.10;99.90
4922;DHT22;16625;53.624;10.106;2023-04-03T15:53:07;6.90;99.90
4922;DHT22;16625;53.624;10.106;2023-04-03T15:55:37;6.90;99.90
4922;DHT22;16625;53.624;10.106;2023-04-03T15:58:10;6.90;99.90
4922;DHT22;16625;53.624;10.106;2023-04-03T16:00:37;6.80;99.90
4922;DHT22;16625;53.624;10.106;2023-04-03T16:03:10;6.70;99.90
4922;DHT22;16625;53.624;10.106;2023-04-03T16:05:40;6.70;99.90
4922;DHT22;16625;53.624;10.106;2023-04-03T16:08:08;6.80;99.90
4922;DHT22;16625;53.624;10.106;2023-04-03T16:10:40;6.70;99.90
4922;DHT22;16625;53.624;10.106;2023-04-03T16:13:10;6.80;99.90
4922;DHT22;16625;53.624;10.106;2023-04-03T16:15:46;6.90;99.90
4922;DHT22;16625;53.624;10.106;2023-04-03T16:18:17;6.90;99.90
4922;DHT22;16625;53.624;10.106;2023-04-03T16:20:47;6.90;99.90
4922;DHT22;16625;53.624;10.106;2023-04-03T16:23:14;7.30;99.90
4922;DHT22;16625;53.624;10.106;2023-04-03T16:25:41;7.00;99.90
4922;DHT22;16625;53.624;10.106;2023-04-03T16:28:12;7.40;99.90
4922;DHT22;16625;53.624;10.106;2023-04-03T16:30:47;6.70;99.90
4922;DHT22;16625;53.624;10.106;2023-04-03T16:33:20;6.90;99.90
4922;DHT22;16625;53.624;10.106;2023-04-03T16:35:48;6.50;99.90
4922;DHT22;16625;53.624;10.106;2023-04-03T16:38:20;6.50;99.90